createdAt,value
2023-02-19T00:00:28.121Z,0.00
2023-02-19T00:02:55.116Z,0.00
2023-02-19T00:05:24.526Z,0.00
2023-02-19T00:07:51.227Z,0.00
2023-02-19T00:10:19.134Z,0.00
2023-02-19T00:12:47.514Z,0.00
2023-02-19T00:15:14.319Z,0.00
2023-02-19T00:17:43.131Z,0.05
2023-02-19T00:20:10.307Z,0.00
2023-02-19T00:22:37.489Z,0.00
2023-02-19T00:25:06.087Z,0.00
2023-02-19T00:27:34.176Z,0.00
2023-02-19T00:30:01.236Z,0.00
2023-02-19T00:32:28.553Z,0.00
2023-02-19T00:34:55.323Z,0.00
2023-02-19T00:37:23.152Z,0.00
2023-02-19T00:39:50.139Z,0.00
2023-02-19T00:42:16.915Z,0.00
2023-02-19T00:44:44.125Z,0.00
2023-02-19T00:47:12.330Z,0.00
2023-02-19T00:49:39.624Z,0.00
2023-02-19T00:52:10.017Z,0.00
2023-02-19T00:54:37.449Z,0.00
2023-02-19T01:02:52.753Z,0.00
2023-02-19T01:05:19.694Z,0.00
2023-02-19T01:10:41.140Z,0.00
2023-02-19T01:13:08.041Z,0.00
2023-02-19T01:15:35.996Z,0.00
2023-02-19T01:18:04.030Z,0.00
2023-02-19T01:20:32.570Z,0.00
2023-02-19T01:23:00.140Z,0.00
2023-02-19T01:25:30.509Z,0.00
2023-02-19T01:27:57.339Z,0.10
2023-02-19T01:30:24.460Z,0.00
2023-02-19T01:32:51.508Z,0.00
2023-02-19T01:35:19.130Z,0.05
2023-02-19T01:37:48.193Z,0.00
2023-02-19T01:40:14.971Z,0.00
2023-02-19T01:42:45.072Z,0.10
2023-02-19T01:45:44.442Z,0.00
2023-02-19T01:48:20.105Z,0.00
2023-02-19T01:51:00.094Z,0.10
2023-02-19T01:53:56.755Z,0.20
2023-02-19T01:56:27.704Z,0.10
2023-02-19T01:58:54.814Z,0.08
2023-02-19T02:01:22.475Z,0.00
2023-02-19T02:03:52.198Z,0.10
2023-02-19T02:06:26.180Z,0.00
2023-02-19T02:09:00.024Z,0.00
2023-02-19T02:11:29.798Z,0.00
2023-02-19T02:13:59.226Z,0.00
2023-02-19T02:16:35.069Z,0.03
2023-02-19T02:19:15.467Z,0.00
2023-02-19T02:22:00.071Z,0.10
2023-02-19T02:24:54.870Z,0.08
2023-02-19T02:27:36.031Z,0.00
2023-02-19T02:30:16.262Z,0.10
2023-02-19T02:32:50.059Z,0.10
2023-02-19T02:35:22.141Z,0.20
2023-02-19T02:37:54.172Z,0.10
2023-02-19T02:40:25.987Z,0.05
2023-02-19T02:42:52.765Z,0.17
2023-02-19T02:45:21.652Z,0.10
2023-02-19T02:47:52.906Z,0.10
2023-02-19T02:50:26.079Z,0.10
2023-02-19T02:52:58.841Z,0.10
2023-02-19T02:55:34.174Z,0.10
2023-02-19T02:58:28.144Z,0.10
2023-02-19T03:01:04.204Z,0.10
2023-02-19T03:04:05.072Z,0.10
2023-02-19T03:06:37.478Z,0.10
2023-02-19T03:09:19.367Z,0.07
2023-02-19T03:11:51.113Z,0.10
2023-02-19T03:14:31.282Z,0.10
2023-02-19T03:17:17.107Z,0.25
2023-02-19T03:19:49.772Z,0.15
2023-02-19T03:22:22.778Z,0.20
2023-02-19T03:25:00.789Z,0.20
2023-02-19T03:27:31.340Z,0.25
2023-02-19T03:30:05.388Z,0.20
2023-02-19T03:32:47.062Z,0.30
2023-02-19T03:35:46.608Z,0.20
2023-02-19T03:38:24.158Z,0.20
2023-02-19T03:41:21.515Z,0.30
2023-02-19T03:44:13.134Z,0.30
2023-02-19T03:46:41.123Z,0.20
2023-02-19T03:49:22.142Z,0.20
2023-02-19T03:52:16.792Z,0.32
2023-02-19T03:55:06.545Z,0.30
2023-02-19T03:57:47.904Z,0.32
2023-02-19T04:00:52.025Z,0.20
2023-02-19T04:03:24.022Z,0.50
2023-02-19T04:05:59.737Z,0.20
2023-02-19T04:08:28.550Z,0.20
2023-02-19T04:11:01.851Z,0.25
2023-02-19T04:13:38.910Z,0.20
2023-02-19T04:16:13.877Z,0.20
2023-02-19T04:18:44.270Z,0.30
2023-02-19T04:21:14.032Z,0.20
2023-02-19T04:24:22.023Z,0.30
2023-02-19T04:26:49.241Z,0.28
2023-02-19T04:29:16.158Z,0.30
2023-02-19T04:31:43.195Z,0.40
2023-02-19T04:34:10.140Z,0.40
2023-02-19T04:36:37.048Z,0.32
2023-02-19T04:39:04.196Z,0.63
2023-02-19T04:41:31.075Z,0.50
2023-02-19T04:43:57.927Z,0.57
2023-02-19T04:46:24.931Z,0.70
2023-02-19T04:48:51.886Z,0.68
2023-02-19T04:51:18.704Z,0.70
2023-02-19T04:53:45.655Z,0.57
2023-02-19T04:56:15.270Z,0.40
2023-02-19T04:58:43.458Z,0.47
2023-02-19T05:01:12.484Z,0.38
2023-02-19T05:03:39.497Z,0.35
2023-02-19T05:06:09.177Z,0.40
2023-02-19T05:09:00.796Z,0.30
2023-02-19T05:11:27.742Z,0.17
2023-02-19T05:13:55.828Z,0.20
2023-02-19T05:16:22.756Z,0.20
2023-02-19T05:18:49.501Z,0.10
2023-02-19T05:21:16.780Z,0.10
2023-02-19T05:23:44.145Z,0.20
2023-02-19T05:26:17.185Z,0.17
2023-02-19T05:28:49.326Z,0.15
2023-02-19T05:31:16.841Z,0.20
2023-02-19T05:33:44.347Z,0.22
2023-02-19T05:36:14.023Z,0.10
2023-02-19T05:38:42.058Z,0.20
2023-02-19T05:41:17.723Z,0.20
2023-02-19T05:43:47.636Z,0.30
2023-02-19T05:46:16.910Z,0.30
2023-02-19T05:48:43.894Z,0.40
2023-02-19T05:51:14.092Z,0.20
2023-02-19T05:53:42.682Z,0.25
2023-02-19T05:56:38.502Z,0.20
2023-02-19T05:59:26.322Z,0.13
2023-02-19T06:01:55.981Z,0.20
2023-02-19T06:04:22.857Z,0.10
2023-02-19T06:06:50.059Z,0.17
2023-02-19T06:09:17.723Z,0.10
2023-02-19T06:11:45.358Z,0.10
2023-02-19T06:14:13.786Z,0.10
2023-02-19T06:16:41.215Z,0.05
2023-02-19T06:19:10.141Z,0.13
2023-02-19T06:22:02.193Z,0.10
2023-02-19T06:24:31.024Z,0.30
2023-02-19T06:26:57.807Z,0.30
2023-02-19T06:29:25.780Z,0.10
2023-02-19T06:31:52.683Z,0.00
2023-02-19T06:34:19.518Z,0.10
2023-02-19T06:36:48.749Z,0.10
2023-02-19T06:39:15.874Z,0.00
2023-02-19T06:41:42.842Z,0.10
2023-02-19T06:44:09.990Z,0.10
2023-02-19T06:46:37.175Z,0.10
2023-02-19T06:49:09.065Z,0.10
2023-02-19T06:51:37.490Z,0.20
2023-02-19T06:54:05.981Z,0.10
2023-02-19T06:56:38.085Z,0.10
2023-02-19T06:59:09.074Z,0.10
2023-02-19T07:01:37.706Z,0.10
2023-02-19T07:04:06.148Z,0.10
2023-02-19T07:06:34.017Z,0.10
2023-02-19T07:09:04.725Z,0.10
2023-02-19T07:11:34.824Z,0.10
2023-02-19T07:14:04.282Z,0.10
2023-02-19T07:16:31.165Z,0.10
2023-02-19T07:19:03.149Z,0.00
2023-02-19T07:21:37.770Z,0.10
2023-02-19T07:24:09.287Z,0.00
2023-02-19T07:26:36.314Z,0.00
2023-02-19T07:29:03.197Z,0.00
2023-02-19T07:31:30.314Z,0.00
2023-02-19T07:33:57.237Z,0.00
2023-02-19T07:36:24.689Z,0.00
2023-02-19T07:39:02.117Z,0.00
2023-02-19T07:41:54.161Z,0.00
2023-02-19T07:44:27.487Z,0.00
2023-02-19T07:46:54.342Z,0.00
2023-02-19T07:49:21.345Z,0.00
2023-02-19T07:51:48.212Z,0.00
2023-02-19T07:54:15.341Z,0.00
2023-02-19T07:56:42.148Z,0.00
2023-02-19T07:59:08.960Z,0.00
2023-02-19T08:01:36.071Z,0.00
2023-02-19T08:04:02.959Z,0.00
2023-02-19T08:06:29.804Z,0.00
2023-02-19T08:08:57.143Z,0.00
2023-02-19T08:11:24.173Z,0.00
2023-02-19T08:13:52.772Z,0.00
2023-02-19T08:16:33.118Z,0.00
2023-02-19T08:19:04.077Z,0.00
2023-02-19T08:21:34.614Z,0.00
2023-02-19T08:24:01.432Z,0.00
2023-02-19T08:26:29.094Z,0.00
2023-02-19T08:28:56.558Z,0.00
2023-02-19T08:31:23.491Z,0.00
2023-02-19T08:33:52.883Z,0.00
2023-02-19T08:36:19.625Z,0.00
2023-02-19T08:38:46.405Z,0.00
2023-02-19T08:41:15.063Z,0.00
2023-02-19T08:43:42.939Z,0.00
2023-02-19T08:46:11.048Z,0.00
2023-02-19T08:48:38.607Z,0.00
2023-02-19T08:51:07.794Z,0.00
2023-02-19T08:53:37.508Z,0.00
2023-02-19T08:56:22.202Z,0.00
2023-02-19T08:58:49.809Z,0.00
2023-02-19T09:01:18.490Z,0.00
2023-02-19T09:03:45.974Z,0.00
2023-02-19T09:06:19.202Z,0.00
2023-02-19T09:08:46.732Z,0.00
2023-02-19T09:11:17.098Z,0.00
2023-02-19T09:13:47.617Z,0.00
2023-02-19T09:16:14.640Z,0.00
2023-02-19T09:18:42.168Z,0.00
2023-02-19T09:21:09.190Z,0.00
2023-02-19T09:23:38.086Z,0.00
2023-02-19T09:26:06.760Z,0.00
2023-02-19T09:28:33.751Z,0.00
2023-02-19T09:31:15.074Z,0.00
2023-02-19T09:33:43.588Z,0.00
2023-02-19T09:36:10.868Z,0.00
2023-02-19T09:38:37.836Z,0.00
2023-02-19T09:41:14.208Z,0.00
2023-02-19T09:43:46.141Z,0.00
2023-02-19T09:46:29.201Z,0.00
2023-02-19T09:49:03.901Z,0.00
2023-02-19T09:51:32.680Z,0.00
2023-02-19T09:54:00.582Z,0.00
2023-02-19T09:56:28.101Z,0.00
2023-02-19T09:58:58.344Z,0.00
2023-02-19T10:01:30.144Z,0.00
2023-02-19T10:03:58.670Z,0.00
2023-02-19T10:06:28.321Z,0.00
2023-02-19T10:09:13.589Z,0.00
2023-02-19T10:11:42.230Z,0.00
2023-02-19T10:14:17.395Z,0.00
2023-02-19T10:16:48.266Z,0.00
2023-02-19T10:19:16.314Z,0.00
2023-02-19T10:21:44.199Z,0.00
2023-02-19T10:24:21.135Z,0.00
2023-02-19T10:26:50.758Z,0.00
2023-02-19T10:29:17.765Z,0.00
2023-02-19T10:31:44.674Z,0.00
2023-02-19T10:34:21.074Z,0.00
2023-02-19T10:36:51.009Z,0.00
2023-02-19T10:39:36.886Z,0.00
2023-02-19T10:42:04.274Z,0.00
2023-02-19T10:44:44.296Z,0.00
2023-02-19T10:47:36.365Z,0.00
2023-02-19T10:52:57.486Z,0.00
2023-02-19T10:55:38.758Z,0.00
2023-02-19T10:58:26.813Z,0.00
2023-02-19T11:01:30.598Z,0.00
2023-02-19T11:04:22.546Z,0.00
2023-02-19T11:06:51.178Z,0.00
2023-02-19T11:09:27.149Z,0.00
2023-02-19T11:11:56.291Z,0.00
2023-02-19T11:14:25.901Z,0.00
2023-02-19T11:16:58.704Z,0.00
2023-02-19T11:19:34.809Z,0.00
2023-02-19T11:22:03.435Z,0.00
2023-02-19T11:24:39.014Z,0.00
2023-02-19T11:27:17.404Z,0.00
2023-02-19T11:29:44.233Z,0.00
2023-02-19T11:32:24.627Z,0.00
2023-02-19T11:34:52.015Z,0.00
2023-02-19T11:37:22.112Z,0.00
2023-02-19T11:39:52.702Z,0.00
2023-02-19T11:42:30.614Z,0.00
2023-02-19T11:45:17.353Z,0.00
2023-02-19T11:48:12.400Z,0.00
2023-02-19T11:50:47.870Z,0.00
2023-02-19T11:53:43.044Z,0.00
2023-02-19T11:56:23.882Z,0.00
2023-02-19T11:59:02.924Z,0.00
2023-02-19T12:01:51.193Z,0.00
2023-02-19T12:04:39.855Z,0.00
2023-02-19T12:07:09.568Z,0.00
2023-02-19T12:09:42.431Z,0.10
2023-02-19T12:12:21.711Z,0.00
2023-02-19T12:15:09.865Z,0.00
2023-02-19T12:17:48.015Z,0.00
2023-02-19T12:20:32.015Z,0.00
2023-02-19T12:23:40.392Z,0.00
2023-02-19T12:26:37.103Z,0.00
2023-02-19T12:29:24.137Z,0.00
2023-02-19T12:31:56.973Z,0.00
2023-02-19T12:34:40.788Z,1.50
2023-02-19T12:37:24.906Z,0.00
2023-02-19T12:40:17.260Z,0.00
2023-02-19T12:43:05.798Z,0.15
2023-02-19T12:45:37.094Z,0.00
2023-02-19T12:48:07.257Z,0.00
2023-02-19T12:50:37.878Z,0.00
2023-02-19T12:53:32.947Z,0.00
2023-02-19T12:56:06.628Z,0.00
2023-02-19T12:58:54.176Z,0.00
2023-02-19T13:01:29.045Z,0.00
2023-02-19T13:04:09.097Z,0.00
2023-02-19T13:06:53.136Z,0.00
2023-02-19T13:09:31.016Z,0.00
2023-02-19T13:12:30.011Z,0.00
2023-02-19T13:15:04.766Z,0.00
2023-02-19T13:17:45.994Z,0.00
2023-02-19T13:20:35.432Z,0.00
2023-02-19T13:23:24.066Z,0.00
2023-02-19T13:26:19.613Z,0.00
2023-02-19T13:29:08.724Z,0.00
2023-02-19T13:32:05.491Z,0.00
2023-02-19T13:35:03.151Z,0.00
2023-02-19T13:37:40.001Z,0.00
2023-02-19T13:40:27.659Z,0.00
2023-02-19T13:42:59.298Z,0.00
2023-02-19T13:45:36.107Z,0.00
2023-02-19T13:48:14.704Z,0.00
2023-02-19T13:50:42.949Z,0.00
2023-02-19T13:53:40.866Z,0.00
2023-02-19T13:56:34.500Z,0.00
2023-02-19T13:59:11.572Z,0.00
2023-02-19T14:01:51.400Z,0.00
2023-02-19T14:04:47.192Z,0.00
2023-02-19T14:07:14.340Z,0.00
2023-02-19T14:09:41.521Z,0.00
2023-02-19T14:12:15.495Z,0.00
2023-02-19T14:14:48.689Z,0.00
2023-02-19T14:17:43.028Z,0.00
2023-02-19T14:20:10.547Z,0.00
2023-02-19T14:22:48.045Z,0.00
2023-02-19T14:25:36.016Z,0.00
2023-02-19T14:28:15.247Z,0.00
2023-02-19T14:30:57.043Z,0.00
2023-02-19T14:33:58.827Z,0.00
2023-02-19T14:36:38.353Z,0.00
2023-02-19T14:39:26.707Z,0.00
2023-02-19T14:42:02.328Z,0.00
2023-02-19T14:44:37.428Z,0.00
2023-02-19T14:47:12.354Z,0.00
2023-02-19T14:49:43.458Z,0.00
2023-02-19T14:52:20.959Z,0.00
2023-02-19T14:55:00.473Z,0.00
2023-02-19T14:57:40.534Z,0.00
2023-02-19T15:00:23.035Z,0.00
2023-02-19T15:02:52.433Z,0.00
2023-02-19T15:05:25.300Z,0.00
2023-02-19T15:08:00.801Z,0.00
2023-02-19T15:10:32.222Z,0.00
2023-02-19T15:13:10.175Z,0.00
2023-02-19T15:15:43.896Z,0.20
2023-02-19T15:18:23.114Z,0.00
2023-02-19T15:20:58.696Z,0.00
2023-02-19T15:23:29.127Z,0.10
2023-02-19T15:26:00.236Z,0.00
2023-02-19T15:28:31.558Z,0.00
2023-02-19T15:30:59.164Z,0.00
2023-02-19T15:33:28.319Z,0.00
2023-02-19T15:36:03.290Z,0.00
2023-02-19T15:38:30.995Z,0.00
2023-02-19T15:40:58.924Z,0.00
2023-02-19T15:43:32.844Z,0.00
2023-02-19T15:46:09.442Z,0.08
2023-02-19T15:48:59.805Z,0.00
2023-02-19T15:51:37.407Z,0.00
2023-02-19T15:54:31.236Z,0.00
2023-02-19T15:57:06.970Z,0.00
2023-02-19T16:00:00.381Z,0.00
2023-02-19T16:02:28.387Z,0.00
2023-02-19T16:04:56.753Z,0.00
2023-02-19T16:07:27.436Z,0.00
2023-02-19T16:10:22.484Z,0.00
2023-02-19T16:13:01.165Z,0.00
2023-02-19T16:15:33.161Z,0.00
2023-02-19T16:18:00.793Z,0.00
2023-02-19T16:20:31.425Z,0.00
2023-02-19T16:23:04.407Z,0.00
2023-02-19T16:25:41.606Z,0.00
2023-02-19T16:28:33.230Z,0.00
2023-02-19T16:31:06.600Z,0.00
2023-02-19T16:33:37.644Z,0.00
2023-02-19T16:36:25.710Z,0.00
2023-02-19T16:39:22.212Z,0.00
2023-02-19T16:41:50.761Z,0.00
2023-02-19T16:44:21.393Z,0.00
2023-02-19T16:46:58.547Z,0.00
2023-02-19T16:49:26.630Z,0.00
2023-02-19T16:51:54.753Z,0.00
2023-02-19T16:54:22.745Z,0.00
2023-02-19T16:56:51.744Z,0.00
2023-02-19T16:59:19.643Z,0.00
2023-02-19T17:01:48.503Z,0.00
2023-02-19T17:04:16.761Z,0.00
2023-02-19T17:06:45.723Z,0.00
2023-02-19T17:09:16.894Z,0.00
2023-02-19T17:11:44.554Z,0.00
2023-02-19T17:14:12.777Z,0.00
2023-02-19T17:16:40.732Z,0.00
2023-02-19T17:19:17.024Z,0.00
2023-02-19T17:21:45.778Z,0.00
2023-02-19T17:24:14.165Z,0.00
2023-02-19T17:26:42.465Z,0.00
2023-02-19T17:29:15.594Z,0.00
2023-02-19T17:31:45.115Z,0.00
2023-02-19T17:34:14.108Z,0.00
2023-02-19T17:36:42.393Z,0.00
2023-02-19T17:39:14.352Z,0.00
2023-02-19T17:41:41.944Z,0.00
2023-02-19T17:44:10.474Z,0.00
2023-02-19T17:46:39.151Z,0.00
2023-02-19T17:49:07.875Z,0.00
2023-02-19T17:51:35.617Z,0.00
2023-02-19T17:54:05.827Z,1.75
2023-02-19T17:56:34.462Z,0.00
2023-02-19T17:59:02.538Z,0.00
2023-02-19T18:01:30.821Z,0.00
2023-02-19T18:03:58.880Z,0.00
2023-02-19T18:06:28.022Z,0.00
2023-02-19T18:08:55.778Z,0.00
2023-02-19T18:11:24.625Z,0.00
2023-02-19T18:13:52.954Z,0.00
2023-02-19T18:16:25.011Z,0.00
2023-02-19T18:18:54.642Z,0.00
2023-02-19T18:21:24.815Z,0.00
2023-02-19T18:23:53.620Z,0.00
2023-02-19T18:26:26.350Z,0.00
2023-02-19T18:28:54.432Z,0.00
2023-02-19T18:31:23.088Z,0.00
2023-02-19T18:33:50.300Z,0.00
2023-02-19T18:36:18.018Z,0.00
2023-02-19T18:38:45.660Z,0.00
2023-02-19T18:41:14.816Z,0.00
2023-02-19T18:43:42.689Z,0.00
2023-02-19T18:46:12.548Z,0.00
2023-02-19T18:48:40.792Z,0.00
2023-02-19T18:51:12.261Z,0.00
2023-02-19T18:53:42.728Z,0.00
2023-02-19T18:56:11.120Z,0.00
2023-02-19T18:58:38.371Z,0.00
2023-02-19T19:01:06.626Z,0.00
2023-02-19T19:04:02.264Z,0.00
2023-02-19T19:06:31.551Z,0.00
2023-02-19T19:08:59.454Z,0.00
2023-02-19T19:11:28.220Z,0.00
2023-02-19T19:13:56.419Z,0.00
2023-02-19T19:16:26.655Z,0.00
2023-02-19T19:18:57.120Z,0.00
2023-02-19T19:21:26.725Z,0.00
2023-02-19T19:23:54.650Z,0.00
2023-02-19T19:26:22.554Z,0.00
2023-02-19T19:28:50.374Z,0.00
2023-02-19T19:31:19.871Z,0.00
2023-02-19T19:33:49.588Z,0.00
2023-02-19T19:36:23.724Z,0.08
2023-02-19T19:38:52.442Z,0.00
2023-02-19T19:41:30.910Z,0.00
2023-02-19T19:44:03.109Z,0.00
2023-02-19T19:46:34.704Z,0.10
2023-02-19T19:49:03.283Z,0.00
2023-02-19T19:51:36.072Z,0.00
2023-02-19T19:54:07.717Z,0.00
2023-02-19T19:56:44.429Z,0.00
2023-02-19T19:59:15.354Z,0.00
2023-02-19T20:01:57.555Z,0.00
2023-02-19T20:04:28.552Z,0.00
2023-02-19T20:07:00.010Z,0.00
2023-02-19T20:09:28.303Z,0.00
2023-02-19T20:11:57.401Z,0.00
2023-02-19T20:14:30.407Z,0.00
2023-02-19T20:17:03.758Z,0.00
2023-02-19T20:19:33.027Z,0.03
2023-02-19T20:22:01.021Z,0.00
2023-02-19T20:24:30.691Z,0.10
2023-02-19T20:27:00.709Z,0.00
2023-02-19T20:29:33.050Z,0.00
2023-02-19T20:32:01.607Z,0.00
2023-02-19T20:34:29.743Z,0.00
2023-02-19T20:36:59.554Z,0.00
2023-02-19T20:39:27.918Z,0.00
2023-02-19T20:41:56.460Z,0.00
2023-02-19T20:44:25.514Z,0.00
2023-02-19T20:46:54.057Z,0.00
2023-02-19T20:49:25.524Z,0.00
2023-02-19T20:52:08.793Z,0.00
2023-02-19T20:54:37.225Z,0.00
2023-02-19T20:57:07.315Z,0.00
2023-02-19T20:59:35.382Z,0.00
2023-02-19T21:02:04.699Z,0.00
2023-02-19T21:04:32.238Z,0.00
2023-02-19T21:07:00.749Z,0.00
2023-02-19T21:09:30.428Z,0.00
2023-02-19T21:11:59.990Z,0.00
2023-02-19T21:14:27.920Z,0.00
2023-02-19T21:16:58.299Z,0.00
2023-02-19T21:19:26.045Z,0.20
2023-02-19T21:21:55.088Z,0.20
2023-02-19T21:24:22.248Z,0.57
2023-02-19T21:26:49.781Z,0.43
2023-02-19T21:29:21.294Z,0.40
2023-02-19T21:31:53.646Z,0.70
2023-02-19T21:34:26.494Z,0.70
2023-02-19T21:36:55.266Z,0.70
2023-02-19T21:39:24.731Z,0.90
2023-02-19T21:41:53.464Z,0.75
2023-02-19T21:44:22.485Z,1.10
2023-02-19T21:46:50.937Z,1.55
2023-02-19T21:49:19.206Z,1.38
2023-02-19T21:51:46.618Z,1.50
2023-02-19T21:54:17.097Z,1.80
2023-02-19T21:56:44.567Z,1.70
2023-02-19T21:59:11.691Z,1.90
2023-02-19T22:01:39.547Z,2.05
2023-02-19T22:04:08.128Z,1.90
2023-02-19T22:06:35.181Z,1.90
2023-02-19T22:09:02.106Z,1.90
2023-02-19T22:11:28.950Z,1.42
2023-02-19T22:13:55.809Z,1.80
2023-02-19T22:16:22.963Z,1.52
2023-02-19T22:18:55.401Z,1.20
2023-02-19T22:21:24.210Z,1.80
2023-02-19T22:23:52.698Z,1.60
2023-02-19T22:26:25.015Z,1.30
2023-02-19T22:28:53.392Z,1.50
2023-02-19T22:31:22.852Z,1.25
2023-02-19T22:33:50.455Z,1.50
2023-02-19T22:36:25.138Z,1.52
2023-02-19T22:38:52.640Z,1.48
2023-02-19T22:41:20.912Z,1.40
2023-02-19T22:43:48.148Z,1.40
2023-02-19T22:46:18.194Z,1.40
2023-02-19T22:48:45.513Z,1.33
2023-02-19T22:51:14.026Z,1.30
2023-02-19T22:53:46.022Z,1.40
2023-02-19T22:56:14.430Z,1.52
2023-02-19T22:59:08.584Z,1.20
2023-02-19T23:01:36.614Z,1.10
2023-02-19T23:04:03.816Z,1.38
2023-02-19T23:06:33.124Z,1.13
2023-02-19T23:09:10.999Z,1.40
2023-02-19T23:11:38.553Z,1.57
2023-02-19T23:14:06.744Z,1.33
2023-02-19T23:16:34.385Z,1.15
2023-02-19T23:19:05.782Z,1.02
2023-02-19T23:21:35.223Z,1.30
2023-02-19T23:24:02.103Z,1.60
2023-02-19T23:26:28.983Z,1.42
2023-02-19T23:28:56.181Z,1.63
2023-02-19T23:31:23.616Z,1.70
2023-02-19T23:33:50.661Z,1.52
2023-02-19T23:36:17.461Z,1.53
2023-02-19T23:38:47.594Z,1.50
2023-02-19T23:41:16.476Z,1.30
2023-02-19T23:43:43.453Z,1.38
2023-02-19T23:46:14.819Z,1.40
2023-02-19T23:48:42.169Z,1.30
2023-02-19T23:51:08.896Z,1.40
2023-02-19T23:53:35.750Z,1.30
2023-02-19T23:56:02.580Z,1.17
2023-02-19T23:58:29.417Z,1.45
